KCEF/CEF METAR and TAF weather

Enter ICAO airport designator
Station Type Date Time Source
KCEF METAR 2020/07/11 15:56 UTC NOAA

KCEF 111556Z 18009KT 10SM FEW026 SCT070 BKN180 29/22 A2970 RMK AO2A WND DATA ESTMD SLP061 T02940218


Station Type Date Time Source
KCEF Decoded METAR 2020/07/11 15:56 UTC NOAA

Chicopee Falls / Westover Air Force Base, MA, United States (KCEF) 42-12N 072-32W 75M
Jul 11, 2020 - 11:56 AM EDT / 2020.07.11 1556 UTC
Wind: from the S (180 degrees) at 10 MPH (9 KT):0
Visibility: 10 mile(s):0
Sky conditions: mostly cloudy
Temperature: 84.9 F (29.4 C)
Dew Point: 71.2 F (21.8 C)
Relative Humidity: 63%
Pressure (altimeter): 29.7 in. Hg (1005 hPa)
ob: KCEF 111556Z 18009KT 10SM FEW026 SCT070 BKN180 29/22 A2970 RMK AO2A WND DATA ESTMD SLP061 T02940218
cycle: 16

Station Type Date Time Source
KCEF TAF 2020/07/11 13:09 UTC NOAA

TAF TAF KCEF 111300Z 1113/1219 17012G20KT 9999 SCT020 BKN180 520104 QNH2969INS
BECMG 1116/1117 20015G20KT 9999 BKN050 520004 QNH2959INS
TEMPO 1117/1123 20015G25KT
TEMPO 1123/1205 20015G25KT 4800 -TSRA BKN025CB
BECMG 1204/1205 18010G15KT 9999 BKN015 BKN200 QNH2958INS
BECMG 1211/1212 24012G18KT 9999 FEW020 BKN050 QNH2964INS TX32/1120Z TN22/1209Z

Example: see airport list